Terminal Aerodrome Forecast
Issued by NWS

Home | Current Version | Previous Version | Text Only | Print | Product List | Glossary On
Versions: 1 2 3 4 5 6 7 8 9 10 11 12 13 14
000
FTUS44 KTSA 290526
TAFXNA
TAF
KXNA 290526Z 2906/3006 06005KT P6SM BKN250
     FM291200 06007KT P6SM OVC050
     FM291500 09007KT P6SM VCTS OVC025CB
      TEMPO 2915/2919 4SM -TSRA BKN015CB
     FM291900 10010KT 6SM -TSRA OVC012CB
      TEMPO 2919/2923 4SM -TSRA BKN007CB
     FM292300 13010KT 4SM -TSRA BKN012CB=

USA.gov is the U.S. government's official web portal to all federal, state and local government web resources and services.